메인 페이지
METAR-TAF:

METAR-TAF

공항 :

Imperial Municipal Airport

Imperial, 네브래스카, 미국

위도: 40-31N, 경도: 101-37W, 고도: 997m

현재 날씨관측

예보는 13분 전, 01:26시(UTC)에 발표되었습니다.
남동7kt
온도 -3°C
습도 86%
기압 1016 hPa
시정: 16.1km
고도 300ft 상공 구름 많음
고도 3800ft 상공 구름 많음
고도 6000ft 상공 흐림

METAR: KIML 170126Z AUTO 14007KT 10SM BKN003 BKN038 OVC060 M03/M05 A2999 RMK AO2 T10281050

시각: 18:39 (01:39 UTC)


TAF: 누락

4,000개 이상의 공항 관측 자료 및 예보 (METAR 및 TAF 보고).

지도상에서 검색 가능한 기상관측소가 노란 점과 빨간 점으로 표시되어 있습니다.

기상관측소 명을 보려면 표시 위로 마우스를 이동하세요.

날씨 관측과 예보를 보려면 클릭하세요.

지도 변경 : 확대하려면 엑스 표시가 있는 녹색 버튼, 축소하려면 빼기 표시가 있는 녹색 버튼, 다음 페이지의 지도를 보려면 녹색 화살표를 클릭하세요.


METAR-TAF: